Time;durP1;ratioP1;P1;durP2;ratioP2;P2;SDS_P1;SDS_P2;PMS_P1;PMS_P2;Temp;Humidity;BMP_temperature;BMP_pressure;BME280_temperature;BME280_humidity;BME280_pressure;Samples;Min_cycle;Max_cycle;Signal;HPM_P1;HPM_P2
2022/11/19 00:00:48;;;;;;;1999.90;999.90;;;10.30;99.90;;;;;;5014210;28;20467;-68
2022/11/19 00:03:16;;;;;;;1999.90;999.90;;;10.30;99.90;;;;;;5014246;28;20537;-68
2022/11/19 00:05:44;;;;;;;1999.90;999.90;;;10.20;99.90;;;;;;5014150;28;20168;-68
2022/11/19 00:08:12;;;;;;;1999.90;999.90;;;10.10;99.90;;;;;;5013948;28;20465;-68
2022/11/19 00:10:38;;;;;;;1999.90;999.90;;;10.10;99.90;;;;;;5014029;28;20465;-68
2022/11/19 00:13:06;;;;;;;1999.90;999.90;;;10.10;99.90;;;;;;5014272;28;20407;-68
2022/11/19 00:15:34;;;;;;;1999.90;999.90;;;10.20;99.90;;;;;;5014002;28;20418;-68
2022/11/19 00:18:00;;;;;;;1999.90;999.90;;;10.20;99.90;;;;;;5012676;28;20415;-68
2022/11/19 00:20:26;;;;;;;1999.90;999.90;;;10.10;99.90;;;;;;5013896;28;20466;-68
2022/11/19 00:22:53;;;;;;;1999.90;999.90;;;10.00;99.90;;;;;;5013831;28;20871;-68
2022/11/19 00:25:20;;;;;;;1999.90;999.90;;;10.00;99.90;;;;;;5013864;28;20940;-68
2022/11/19 00:27:46;;;;;;;1999.90;999.90;;;10.00;99.90;;;;;;5013513;28;20426;-68
2022/11/19 00:30:12;;;;;;;1999.90;999.90;;;10.00;99.90;;;;;;5013764;28;20790;-68
2022/11/19 00:32:38;;;;;;;1999.90;999.90;;;10.00;99.90;;;;;;5013581;28;20851;-68
2022/11/19 00:35:04;;;;;;;1999.90;999.90;;;10.00;99.90;;;;;;5013637;28;20413;-68
2022/11/19 00:37:30;;;;;;;1999.90;999.90;;;9.90;99.90;;;;;;5013401;28;20223;-68
2022/11/19 00:39:56;;;;;;;1999.90;999.90;;;9.90;99.90;;;;;;5013409;28;20409;-68
2022/11/19 00:42:22;;;;;;;1999.90;999.90;;;9.90;99.90;;;;;;5013455;28;20799;-68
2022/11/19 00:44:48;;;;;;;1999.90;999.90;;;9.90;99.90;;;;;;5013374;28;20463;-68
2022/11/19 00:47:14;;;;;;;1999.90;999.90;;;9.80;99.90;;;;;;5013301;28;20492;-68
2022/11/19 00:49:40;;;;;;;1999.90;999.90;;;9.80;99.90;;;;;;5013275;28;20776;-68
2022/11/19 00:52:05;;;;;;;1999.90;999.90;;;9.80;99.90;;;;;;5013236;28;20693;-68
2022/11/19 00:54:31;;;;;;;1999.90;999.90;;;9.80;99.90;;;;;;5013337;28;20415;-68
2022/11/19 00:56:56;;;;;;;1999.90;999.90;;;9.80;99.90;;;;;;5013006;28;20744;-68
2022/11/19 00:59:22;;;;;;;1999.90;999.90;;;9.80;99.90;;;;;;5013144;28;20240;-68
2022/11/19 01:01:48;;;;;;;1999.90;999.90;;;9.80;99.90;;;;;;5013144;28;20202;-68
2022/11/19 01:04:13;;;;;;;1999.90;999.90;;;9.80;99.90;;;;;;5013053;28;20191;-68
2022/11/19 01:06:39;;;;;;;1999.90;999.90;;;9.80;99.90;;;;;;5012844;28;20178;-68
2022/11/19 01:09:05;;;;;;;1999.90;999.90;;;9.80;99.90;;;;;;5012937;28;20176;-68
2022/11/19 01:11:33;;;;;;;1999.90;999.90;;;9.80;99.90;;;;;;5012978;28;20192;-68
2022/11/19 01:13:59;;;;;;;1999.90;999.90;;;9.90;99.90;;;;;;5013037;28;21069;-68
2022/11/19 01:16:30;;;;;;;1999.90;999.90;;;9.90;99.90;;;;;;5012835;28;20432;-68
2022/11/19 01:18:57;;;;;;;1999.90;999.90;;;9.90;99.90;;;;;;5012680;28;20449;-68
2022/11/19 01:21:25;;;;;;;1999.90;999.90;;;9.80;99.90;;;;;;5012804;28;20836;-68
2022/11/19 01:23:51;;;;;;;1999.90;999.90;;;9.80;99.90;;;;;;5012636;28;20489;-68
2022/11/19 01:26:17;;;;;;;1999.90;999.90;;;9.80;99.90;;;;;;5012725;28;20411;-68
2022/11/19 01:28:44;;;;;;;1999.90;999.90;;;9.90;99.90;;;;;;5012297;28;20408;-68
2022/11/19 01:31:16;;;;;;;1999.90;999.90;;;9.90;99.90;;;;;;5012671;28;20822;-68
2022/11/19 01:33:42;;;;;;;1999.90;999.90;;;9.90;99.90;;;;;;5012598;28;20784;-68
2022/11/19 01:36:19;;;;;;;1999.90;999.90;;;9.80;99.90;;;;;;5012534;28;21004;-68
2022/11/19 01:38:49;;;;;;;1999.90;999.90;;;9.80;99.90;;;;;;5012480;28;20403;-68
2022/11/19 01:41:19;;;;;;;1999.90;999.90;;;9.80;99.90;;;;;;5012642;28;20427;-68
2022/11/19 01:43:52;;;;;;;1999.90;999.90;;;9.80;99.90;;;;;;5012552;28;20448;-68
2022/11/19 01:46:20;;;;;;;1999.90;999.90;;;9.80;99.90;;;;;;5012444;28;20415;-68
2022/11/19 01:49:03;;;;;;;1999.90;999.90;;;9.90;99.90;;;;;;5012180;28;20415;-68
2022/11/19 01:51:36;;;;;;;1999.90;999.90;;;9.90;99.90;;;;;;5012234;28;20496;-68
2022/11/19 01:54:09;;;;;;;1999.90;999.90;;;9.90;99.90;;;;;;5012396;28;20451;-68
2022/11/19 01:56:35;;;;;;;1999.90;999.90;;;9.90;99.90;;;;;;5012353;28;20413;-68
2022/11/19 01:59:06;;;;;;;1999.90;999.90;;;9.90;99.90;;;;;;5012118;28;20419;-68
2022/11/19 02:01:32;;;;;;;1999.90;999.90;;;10.00;99.90;;;;;;5012296;28;20196;-68
2022/11/19 02:04:03;;;;;;;1999.90;999.90;;;10.00;99.90;;;;;;5012253;28;20461;-68
2022/11/19 02:06:29;;;;;;;1999.90;999.90;;;10.00;99.90;;;;;;5012101;28;20943;-68
2022/11/19 02:08:55;;;;;;;1999.90;999.90;;;9.90;99.90;;;;;;5012078;28;20442;-68
2022/11/19 02:11:30;;;;;;;1999.90;999.90;;;9.90;99.90;;;;;;5012118;28;20422;-68
2022/11/19 02:14:04;;;;;;;1999.90;999.90;;;9.90;99.90;;;;;;5012383;28;20404;-68
2022/11/19 02:16:45;;;;;;;1999.90;999.90;;;9.90;99.90;;;;;;5012173;28;20457;-68
2022/11/19 02:19:34;;;;;;;1999.90;999.90;;;9.80;99.90;;;;;;5012089;28;20510;-68
2022/11/19 02:21:59;;;;;;;1999.90;999.90;;;9.80;99.90;;;;;;5001317;28;20449;-68
2022/11/19 02:24:49;;;;;;;1999.90;999.90;;;9.80;99.90;;;;;;5012009;28;20454;-68
2022/11/19 02:27:20;;;;;;;1999.90;999.90;;;9.70;99.90;;;;;;5011839;28;20204;-68
2022/11/19 02:30:10;;;;;;;1999.90;999.90;;;9.70;99.90;;;;;;5011971;28;20411;-68
2022/11/19 02:32:45;;;;;;;1999.90;999.90;;;9.70;99.90;;;;;;5011872;28;20449;-68
2022/11/19 02:35:27;;;;;;;1999.90;999.90;;;9.80;99.90;;;;;;5011918;28;20932;-68
2022/11/19 02:38:09;;;;;;;1999.90;999.90;;;9.80;99.90;;;;;;5011679;28;20458;-68
2022/11/19 02:41:32;;;;;;;1999.90;999.90;;;9.70;99.90;;;;;;5013564;28;20414;-67
2022/11/19 02:44:57;;;;;;;1999.90;999.90;;;9.70;99.90;;;;;;5015552;28;20924;-68
2022/11/19 02:46:38;;;;;;;1999.90;999.90;;;9.70;99.90;;;;;;5015311;28;20431;-68
2022/11/19 02:49:05;;;;;;;1999.90;999.90;;;9.60;99.90;;;;;;5015537;28;20416;-67
2022/11/19 02:51:32;;;;;;;1999.90;999.90;;;9.50;99.90;;;;;;5015446;28;20453;-67
2022/11/19 02:53:57;;;;;;;1999.90;999.90;;;9.30;99.90;;;;;;5015562;28;20507;-67
2022/11/19 02:56:52;;;;;;;1999.90;999.90;;;9.10;99.90;;;;;;5015444;28;20500;-67
2022/11/19 03:04:54;;;;;;;1999.90;999.90;;;8.90;99.90;;;;;;5015406;28;20497;-68
2022/11/19 03:07:20;;;;;;;1999.90;999.90;;;8.80;99.90;;;;;;5015132;28;20486;-68
2022/11/19 03:09:59;;;;;;;1999.90;999.90;;;8.80;99.90;;;;;;5015088;28;20416;-68
2022/11/19 03:12:37;;;;;;;1999.90;999.90;;;8.70;99.90;;;;;;5015163;28;20950;-67
2022/11/19 03:18:13;;;;;;;1999.90;999.90;;;8.60;99.90;;;;;;5014980;28;20411;-67
2022/11/19 03:20:59;;;;;;;1999.90;999.90;;;8.50;99.90;;;;;;5015059;28;20938;-67
2022/11/19 03:23:53;;;;;;;1999.90;999.90;;;8.50;99.90;;;;;;5015025;28;20455;-67
2022/11/19 03:26:31;;;;;;;1999.90;999.90;;;8.40;99.90;;;;;;5014918;28;20449;-67
2022/11/19 03:29:01;;;;;;;1999.90;999.90;;;8.30;99.90;;;;;;5014794;28;20491;-67
2022/11/19 03:31:30;;;;;;;1999.90;999.90;;;8.20;99.90;;;;;;5014851;28;20422;-67
2022/11/19 03:34:06;;;;;;;1999.90;999.90;;;8.20;99.90;;;;;;5014750;28;20419;-68
2022/11/19 03:36:36;;;;;;;1999.90;999.90;;;8.10;99.90;;;;;;5014704;28;20413;-67
2022/11/19 03:39:06;;;;;;;1999.90;999.90;;;8.00;99.90;;;;;;5014644;28;20400;-67
2022/11/19 03:41:34;;;;;;;1999.90;999.90;;;8.00;99.90;;;;;;5014818;28;20504;-67
2022/11/19 03:44:07;;;;;;;1999.90;999.90;;;8.00;99.90;;;;;;5014556;28;20476;-67
2022/11/19 03:46:35;;;;;;;1999.90;999.90;;;8.00;99.90;;;;;;5014561;28;20768;-67
2022/11/19 03:49:03;;;;;;;1999.90;999.90;;;7.90;99.90;;;;;;5014411;28;20491;-67
2022/11/19 03:51:43;;;;;;;1999.90;999.90;;;7.90;99.90;;;;;;5014234;28;20458;-67
2022/11/19 03:56:45;;;;;;;1999.90;999.90;;;7.70;99.90;;;;;;5045177;28;20459;-66
2022/11/19 03:59:11;;;;;;;1999.90;999.90;;;7.60;99.90;;;;;;5040822;28;20458;-66
2022/11/19 04:01:38;;;;;;;1999.90;999.90;;;7.50;99.90;;;;;;5037011;28;20396;-66
2022/11/19 04:06:49;;;;;;;1999.90;999.90;;;7.50;99.90;;;;;;5025695;28;20521;-66
2022/11/19 04:09:14;;;;;;;1999.90;999.90;;;8.30;99.90;;;;;;5026259;28;20408;-66
2022/11/19 04:11:40;;;;;;;1999.90;999.90;;;7.50;99.90;;;;;;5025449;28;20436;-66
2022/11/19 04:14:06;;;;;;;1999.90;999.90;;;7.50;99.90;;;;;;5025795;28;20177;-66
2022/11/19 04:16:31;;;;;;;1999.90;999.90;;;7.50;99.90;;;;;;5021171;28;20224;-66
2022/11/19 04:18:57;;;;;;;1999.90;999.90;;;7.40;99.90;;;;;;5013830;28;20182;-66
2022/11/19 04:21:22;;;;;;;1999.90;999.90;;;7.50;99.90;;;;;;5014793;28;20253;-66
2022/11/19 04:23:48;;;;;;;1999.90;999.90;;;7.50;99.90;;;;;;5021996;28;20257;-65
2022/11/19 04:26:13;;;;;;;1999.90;999.90;;;7.50;99.90;;;;;;5024257;28;20192;-66
2022/11/19 04:28:40;;;;;;;1999.90;999.90;;;7.50;99.90;;;;;;5023381;28;20252;-66
2022/11/19 04:31:05;;;;;;;1999.90;999.90;;;7.50;99.90;;;;;;5024696;28;20174;-65
2022/11/19 04:33:31;;;;;;;1999.90;999.90;;;7.40;99.90;;;;;;5026973;28;21012;-66
2022/11/19 04:35:57;;;;;;;1999.90;999.90;;;7.40;99.90;;;;;;5027486;28;20227;-66
2022/11/19 04:38:22;;;;;;;1999.90;999.90;;;7.30;99.90;;;;;;5021367;28;20169;-66
2022/11/19 04:40:48;;;;;;;1999.90;999.90;;;7.30;99.90;;;;;;5013637;28;20173;-67
2022/11/19 04:43:13;;;;;;;1999.90;999.90;;;7.20;99.90;;;;;;5013413;28;20177;-67
2022/11/19 04:45:39;;;;;;;1999.90;999.90;;;7.20;99.90;;;;;;5013441;28;20222;-66
2022/11/19 04:48:05;;;;;;;1999.90;999.90;;;7.10;99.90;;;;;;5013265;28;20165;-66
2022/11/19 04:50:30;;;;;;;1999.90;999.90;;;7.00;99.90;;;;;;5013520;28;20584;-66
2022/11/19 04:52:57;;;;;;;1999.90;999.90;;;7.00;99.90;;;;;;5013490;28;20173;-66
2022/11/19 04:55:23;;;;;;;1999.90;999.90;;;6.90;99.90;;;;;;5013168;28;20201;-66
2022/11/19 04:57:50;;;;;;;1999.90;999.90;;;6.70;99.90;;;;;;5013042;28;20900;-66
2022/11/19 05:00:16;;;;;;;1999.90;999.90;;;6.60;99.90;;;;;;5013220;28;20161;-68
2022/11/19 05:02:42;;;;;;;1999.90;999.90;;;6.60;99.90;;;;;;5016619;28;20404;-66
2022/11/19 05:05:08;;;;;;;1999.90;999.90;;;6.50;99.90;;;;;;5021969;28;20456;-66
2022/11/19 05:07:33;;;;;;;1999.90;999.90;;;6.50;99.90;;;;;;5021953;28;20418;-66
2022/11/19 05:09:59;;;;;;;1999.90;999.90;;;6.50;99.90;;;;;;5019286;28;20173;-66
2022/11/19 05:12:25;;;;;;;1999.90;999.90;;;6.50;99.90;;;;;;5013018;28;20173;-66
2022/11/19 05:14:50;;;;;;;1999.90;999.90;;;6.60;99.90;;;;;;5012885;28;20189;-68
2022/11/19 05:17:16;;;;;;;1999.90;999.90;;;6.70;99.90;;;;;;5012755;28;20169;-66
2022/11/19 05:19:41;;;;;;;1999.90;999.90;;;6.70;99.90;;;;;;5012917;28;20172;-66
2022/11/19 05:22:07;;;;;;;1999.90;999.90;;;6.60;99.90;;;;;;5012927;28;20191;-66
2022/11/19 05:24:33;;;;;;;1999.90;999.90;;;6.60;99.90;;;;;;5012779;28;20673;-66
2022/11/19 05:26:58;;;;;;;1999.90;999.90;;;6.50;99.90;;;;;;5019633;28;20183;-66
2022/11/19 05:29:24;;;;;;;1999.90;999.90;;;6.60;99.90;;;;;;5020769;28;20169;-66
2022/11/19 05:31:49;;;;;;;1999.90;999.90;;;6.60;99.90;;;;;;5021530;28;20165;-66
2022/11/19 05:34:15;;;;;;;1999.90;999.90;;;6.60;99.90;;;;;;5019960;28;20226;-66
2022/11/19 05:36:40;;;;;;;1999.90;999.90;;;6.60;99.90;;;;;;5017595;28;20204;-68
2022/11/19 05:39:06;;;;;;;1999.90;999.90;;;6.70;99.90;;;;;;5002376;28;20244;-66
2022/11/19 05:41:32;;;;;;;1999.90;999.90;;;6.70;99.90;;;;;;5022172;28;20169;-66
2022/11/19 05:43:57;;;;;;;1999.90;999.90;;;6.70;99.90;;;;;;5018869;28;20247;-66
2022/11/19 05:46:23;;;;;;;1999.90;999.90;;;6.80;99.90;;;;;;5012332;28;20592;-66
2022/11/19 05:48:48;;;;;;;1999.90;999.90;;;6.80;99.90;;;;;;5013541;28;20165;-66
2022/11/19 05:51:15;;;;;;;1999.90;999.90;;;6.60;99.90;;;;;;5025891;28;20188;-66
2022/11/19 05:53:42;;;;;;;1999.90;999.90;;;6.70;99.90;;;;;;5024945;28;20173;-66
2022/11/19 05:56:07;;;;;;;1999.90;999.90;;;6.70;99.90;;;;;;5021277;28;20523;-66
2022/11/19 05:58:33;;;;;;;1999.90;999.90;;;6.80;99.90;;;;;;5019733;28;21019;-67
2022/11/19 06:00:59;;;;;;;1999.90;999.90;;;6.80;99.90;;;;;;5012390;28;20176;-66
2022/11/19 06:03:24;;;;;;;1999.90;999.90;;;6.80;99.90;;;;;;5012272;28;20169;-66
2022/11/19 06:05:50;;;;;;;1999.90;999.90;;;6.90;99.90;;;;;;5012131;28;20448;-66
2022/11/19 06:08:16;;;;;;;1999.90;999.90;;;6.90;99.90;;;;;;5012190;28;20172;-66
2022/11/19 06:10:42;;;;;;;1999.90;999.90;;;6.90;99.90;;;;;;5012259;28;20499;-67
2022/11/19 06:13:08;;;;;;;1999.90;999.90;;;7.00;99.90;;;;;;5013543;28;20404;-66
2022/11/19 06:15:33;;;;;;;1999.90;999.90;;;7.10;99.90;;;;;;5029084;28;20185;-67
2022/11/19 06:17:59;;;;;;;1999.90;999.90;;;7.10;99.90;;;;;;5031998;28;20162;-66
2022/11/19 06:20:25;;;;;;;1999.90;999.90;;;7.20;99.90;;;;;;5032988;28;20169;-65
2022/11/19 06:22:50;;;;;;;1999.90;999.90;;;7.20;99.90;;;;;;5022762;28;20526;-66
2022/11/19 06:25:16;;;;;;;1999.90;999.90;;;7.20;99.90;;;;;;5016821;28;20212;-65
2022/11/19 06:27:42;;;;;;;1999.90;999.90;;;7.20;99.90;;;;;;5024641;28;20795;-66
2022/11/19 06:30:08;;;;;;;1999.90;999.90;;;7.20;99.90;;;;;;5023704;28;20466;-66
2022/11/19 06:32:34;;;;;;;1999.90;999.90;;;7.20;99.90;;;;;;5016205;28;20251;-67
2022/11/19 06:34:59;;;;;;;1999.90;999.90;;;7.30;99.90;;;;;;5025653;28;20429;-66
2022/11/19 06:37:25;;;;;;;1999.90;999.90;;;7.30;99.90;;;;;;5029004;28;20178;-66
2022/11/19 06:39:51;;;;;;;1999.90;999.90;;;7.30;99.90;;;;;;5024858;28;20627;-67
2022/11/19 06:42:34;;;;;;;1999.90;999.90;;;7.40;99.90;;;;;;5019296;28;20650;-66
2022/11/19 06:45:04;;;;;;;1999.90;999.90;;;7.30;99.90;;;;;;5022358;28;20212;-66
2022/11/19 06:47:31;;;;;;;1999.90;999.90;;;7.30;99.90;;;;;;5024908;28;20450;-67
2022/11/19 06:49:57;;;;;;;1999.90;999.90;;;7.30;99.90;;;;;;5023073;28;20411;-66
2022/11/19 06:52:22;;;;;;;1999.90;999.90;;;7.40;99.90;;;;;;5025902;28;20481;-66
2022/11/19 06:54:48;;;;;;;1999.90;999.90;;;7.60;99.90;;;;;;5030318;28;20913;-66
2022/11/19 06:57:14;;;;;;;1999.90;999.90;;;7.30;99.90;;;;;;5028558;28;20307;-66
2022/11/19 06:59:39;;;;;;;1999.90;999.90;;;7.30;99.90;;;;;;5030535;28;20173;-65
2022/11/19 07:02:06;;;;;;;1999.90;999.90;;;7.20;99.90;;;;;;5030281;28;20173;-65
2022/11/19 07:04:31;;;;;;;1999.90;999.90;;;7.20;99.90;;;;;;5030528;28;20205;-66
2022/11/19 07:06:57;;;;;;;1999.90;999.90;;;7.10;99.90;;;;;;5029441;28;20456;-65
2022/11/19 07:09:23;;;;;;;1999.90;999.90;;;7.20;99.90;;;;;;5028714;28;20685;-67
2022/11/19 07:11:48;;;;;;;1999.90;999.90;;;6.90;99.90;;;;;;5023909;28;20177;-67
2022/11/19 07:14:14;;;;;;;1999.90;999.90;;;6.80;99.90;;;;;;5021462;28;20252;-66
2022/11/19 07:16:39;;;;;;;1999.90;999.90;;;6.70;99.90;;;;;;5015016;28;20654;-66
2022/11/19 07:19:06;;;;;;;1999.90;999.90;;;6.60;99.90;;;;;;5015111;28;20165;-66
2022/11/19 07:21:32;;;;;;;1999.90;999.90;;;6.60;99.90;;;;;;5015115;28;20169;-66
2022/11/19 07:23:59;;;;;;;1999.90;999.90;;;6.60;99.90;;;;;;5015025;28;20470;-66
2022/11/19 07:26:26;;;;;;;1999.90;999.90;;;6.50;99.90;;;;;;5014436;28;20427;-66
2022/11/19 07:28:51;;;;;;;1999.90;999.90;;;6.50;99.90;;;;;;5014812;28;20436;-66
2022/11/19 07:31:17;;;;;;;1999.90;999.90;;;6.50;99.90;;;;;;5014936;28;20428;-66
2022/11/19 07:33:43;;;;;;;1999.90;999.90;;;6.60;99.90;;;;;;5014925;28;20177;-66
2022/11/19 07:36:10;;;;;;;1999.90;999.90;;;6.50;99.90;;;;;;5014720;28;20427;-66
2022/11/19 07:38:37;;;;;;;1999.90;999.90;;;6.50;99.90;;;;;;5014645;28;20487;-67
2022/11/19 07:42:47;;;;;;;1999.90;999.90;;;6.40;99.90;;;;;;5017908;28;20462;-66
2022/11/19 07:43:52;;;;;;;1999.90;999.90;;;6.40;99.90;;;;;;5023961;28;20452;-66
2022/11/19 07:46:18;;;;;;;1999.90;999.90;;;6.40;99.90;;;;;;5024345;28;20439;-66
2022/11/19 07:48:43;;;;;;;1999.90;999.90;;;6.40;99.90;;;;;;5024166;28;20172;-67
2022/11/19 07:51:09;;;;;;;1999.90;999.90;;;6.40;99.90;;;;;;5024854;28;20169;-67
2022/11/19 07:53:34;;;;;;;1999.90;999.90;;;6.50;99.90;;;;;;5021633;28;20176;-67
2022/11/19 07:56:01;;;;;;;1999.90;999.90;;;6.40;99.90;;;;;;5014170;28;20291;-66
2022/11/19 07:58:26;;;;;;;1999.90;999.90;;;6.50;99.90;;;;;;5014262;28;20180;-66
2022/11/19 08:00:52;;;;;;;1999.90;999.90;;;6.50;99.90;;;;;;5014296;28;20767;-66
2022/11/19 08:03:18;;;;;;;1999.90;999.90;;;6.50;99.90;;;;;;5014327;28;20165;-66
2022/11/19 08:05:44;;;;;;;1999.90;999.90;;;6.40;99.90;;;;;;5014141;28;20435;-66
2022/11/19 08:08:10;;;;;;;1999.90;999.90;;;6.40;99.90;;;;;;5014082;28;20161;-66
2022/11/19 08:10:35;;;;;;;1999.90;999.90;;;6.40;99.90;;;;;;5014129;28;20403;-66
2022/11/19 08:13:04;;;;;;;1999.90;999.90;;;6.40;99.90;;;;;;5014192;28;20165;-66
2022/11/19 08:15:31;;;;;;;1999.90;999.90;;;6.40;99.90;;;;;;5014089;28;20193;-66
2022/11/19 08:18:14;;;;;;;1999.90;999.90;;;6.40;99.90;;;;;;5013835;28;20418;-66
2022/11/19 08:20:41;;;;;;;1999.90;999.90;;;6.40;99.90;;;;;;5014022;28;20400;-66
2022/11/19 08:23:06;;;;;;;1999.90;999.90;;;6.40;99.90;;;;;;5014082;28;20404;-66
2022/11/19 08:25:32;;;;;;;1999.90;999.90;;;6.40;99.90;;;;;;5013715;28;20803;-66
2022/11/19 08:27:58;;;;;;;1999.90;999.90;;;6.40;99.90;;;;;;5013681;28;20661;-66
2022/11/19 08:30:23;;;;;;;1999.90;999.90;;;6.30;99.90;;;;;;5013774;28;20403;-66
2022/11/19 08:32:49;;;;;;;1999.90;999.90;;;6.30;99.90;;;;;;5013736;28;20171;-66
2022/11/19 08:35:14;;;;;;;1999.90;999.90;;;6.30;99.90;;;;;;5013654;28;20690;-66
2022/11/19 08:37:40;;;;;;;1999.90;999.90;;;6.30;99.90;;;;;;5012588;28;20169;-66
2022/11/19 08:40:06;;;;;;;1999.90;999.90;;;6.20;99.90;;;;;;5013625;28;20180;-66
2022/11/19 08:45:16;;;;;;;1999.90;999.90;;;6.20;99.90;;;;;;5027667;28;20478;-66
2022/11/19 08:47:41;;;;;;;1999.90;999.90;;;6.20;99.90;;;;;;5023382;28;20436;-65
2022/11/19 08:50:07;;;;;;;1999.90;999.90;;;6.20;99.90;;;;;;5015332;28;20169;-66
2022/11/19 08:52:33;;;;;;;1999.90;999.90;;;6.20;99.90;;;;;;5013387;28;20196;-66
2022/11/19 08:54:58;;;;;;;1999.90;999.90;;;6.20;99.90;;;;;;5013272;28;20447;-66
2022/11/19 08:57:24;;;;;;;1999.90;999.90;;;6.30;99.90;;;;;;5013129;28;20165;-66
2022/11/19 08:59:50;;;;;;;1999.90;999.90;;;6.20;99.90;;;;;;5013166;28;20165;-66
2022/11/19 09:02:16;;;;;;;1999.90;999.90;;;6.20;99.90;;;;;;5013232;28;20169;-66
2022/11/19 09:04:42;;;;;;;1999.90;999.90;;;6.20;99.90;;;;;;5013062;28;20448;-66
2022/11/19 09:07:07;;;;;;;1999.90;999.90;;;6.10;99.90;;;;;;5012967;28;20172;-66
2022/11/19 09:09:33;;;;;;;1999.90;999.90;;;6.10;99.90;;;;;;5013049;28;20643;-66
2022/11/19 09:11:58;;;;;;;1999.90;999.90;;;6.20;99.90;;;;;;5013069;28;20543;-66
2022/11/19 09:14:24;;;;;;;1999.90;999.90;;;6.20;99.90;;;;;;5013003;28;20244;-67
2022/11/19 09:16:49;;;;;;;1999.90;999.90;;;6.30;99.90;;;;;;5012773;28;20689;-66
2022/11/19 09:19:15;;;;;;;1999.90;999.90;;;6.30;99.90;;;;;;5012938;28;20169;-66
2022/11/19 09:21:41;;;;;;;1999.90;999.90;;;6.30;99.90;;;;;;5012898;28;20169;-67
2022/11/19 09:24:06;;;;;;;1999.90;999.90;;;6.30;99.90;;;;;;5012825;28;20675;-66
2022/11/19 09:26:34;;;;;;;1999.90;999.90;;;6.30;99.90;;;;;;5012536;28;20703;-66
2022/11/19 09:28:59;;;;;;;1999.90;999.90;;;6.40;99.90;;;;;;5012532;28;20426;-67
2022/11/19 09:31:25;;;;;;;1999.90;999.90;;;6.50;99.90;;;;;;5019950;28;20408;-66
2022/11/19 09:33:52;;;;;;;1999.90;999.90;;;6.40;99.90;;;;;;5027752;28;20173;-66
2022/11/19 09:36:18;;;;;;;1999.90;999.90;;;6.50;99.90;;;;;;5017664;28;20276;-66
2022/11/19 09:38:45;;;;;;;1999.90;999.90;;;6.50;99.90;;;;;;5012425;28;20447;-66
2022/11/19 09:41:17;;;;;;;1999.90;999.90;;;6.60;99.90;;;;;;5012673;28;20408;-67
2022/11/19 09:44:01;;;;;;;1999.90;999.90;;;6.60;99.90;;;;;;5012456;28;20479;-66
2022/11/19 09:46:53;;;;;;;1999.90;999.90;;;6.60;99.90;;;;;;5012399;28;20424;-65
2022/11/19 09:49:44;;;;;;;1999.90;999.90;;;6.60;99.90;;;;;;5012335;28;20432;-66
2022/11/19 09:52:15;;;;;;;1999.90;999.90;;;6.50;99.90;;;;;;5012420;28;20807;-66
2022/11/19 09:57:17;;;;;;;1999.90;999.90;;;6.60;99.90;;;;;;5050255;28;20455;-68
2022/11/19 09:59:42;;;;;;;1999.90;999.90;;;6.70;99.90;;;;;;5054449;28;20398;-67
2022/11/19 10:02:20;;;;;;;1999.90;999.90;;;6.70;99.90;;;;;;5056775;28;20403;-68
2022/11/19 10:04:48;;;;;;;1999.90;999.90;;;6.70;99.90;;;;;;5052282;28;20214;-67
2022/11/19 10:07:41;;;;;;;1999.90;999.90;;;6.80;99.90;;;;;;5033654;28;20400;-68
2022/11/19 10:10:22;;;;;;;1999.90;999.90;;;6.70;99.90;;;;;;5033280;28;20395;-67
2022/11/19 10:13:11;;;;;;;1999.90;999.90;;;6.60;99.90;;;;;;5031867;28;20406;-67
2022/11/19 10:16:13;;;;;;;1999.90;999.90;;;6.60;99.90;;;;;;5031679;28;20788;-67
2022/11/19 10:19:02;;;;;;;1999.90;999.90;;;6.60;99.90;;;;;;5018416;28;20488;-67
2022/11/19 10:21:52;;;;;;;1999.90;999.90;;;6.70;99.90;;;;;;5022049;28;20961;-67
2022/11/19 10:24:25;;;;;;;1999.90;999.90;;;6.70;99.90;;;;;;5030651;28;20443;-67
2022/11/19 10:27:00;;;;;;;1999.90;999.90;;;6.70;99.90;;;;;;5029879;28;20419;-67
2022/11/19 10:29:28;;;;;;;1999.90;999.90;;;6.60;99.90;;;;;;5030113;28;20444;-67
2022/11/19 10:32:14;;;;;;;1999.90;999.90;;;6.60;99.90;;;;;;5030678;28;20469;-67
2022/11/19 10:34:40;;;;;;;1999.90;999.90;;;6.60;99.90;;;;;;5029744;28;20414;-67
2022/11/19 10:37:14;;;;;;;1999.90;999.90;;;6.60;99.90;;;;;;5030030;28;20418;-68
2022/11/19 10:39:54;;;;;;;1999.90;999.90;;;6.60;99.90;;;;;;5030401;28;20446;-68
2022/11/19 10:42:31;;;;;;;1999.90;999.90;;;6.70;99.90;;;;;;5029974;28;20496;-68
2022/11/19 10:45:02;;;;;;;1999.90;999.90;;;6.70;99.90;;;;;;5030578;28;20548;-68
2022/11/19 10:47:55;;;;;;;1999.90;999.90;;;6.70;99.90;;;;;;5030307;28;20407;-68
2022/11/19 10:50:23;;;;;;;1999.90;999.90;;;6.70;99.90;;;;;;5029812;28;20486;-68
2022/11/19 10:52:55;;;;;;;1999.90;999.90;;;6.80;99.90;;;;;;5030840;28;20941;-68
2022/11/19 10:55:27;;;;;;;1999.90;999.90;;;6.80;99.90;;;;;;5030776;28;20438;-68
2022/11/19 10:58:14;;;;;;;1999.90;999.90;;;6.70;99.90;;;;;;5029622;28;20407;-68
2022/11/19 11:00:41;;;;;;;1999.90;999.90;;;6.60;99.90;;;;;;5031028;28;20402;-68
2022/11/19 11:03:23;;;;;;;1999.90;999.90;;;6.60;99.90;;;;;;5034291;28;20434;-69
2022/11/19 11:06:05;;;;;;;1999.90;999.90;;;6.60;99.90;;;;;;5034526;28;20426;-70
2022/11/19 11:08:31;;;;;;;1999.90;999.90;;;6.60;99.90;;;;;;5033863;28;20406;-68
2022/11/19 11:10:57;;;;;;;1999.90;999.90;;;6.60;99.90;;;;;;5033898;28;20912;-68
2022/11/19 11:16:44;;;;;;;1999.90;999.90;;;6.70;99.90;;;;;;5034393;28;20429;-68
2022/11/19 11:19:17;;;;;;;1999.90;999.90;;;6.70;99.90;;;;;;5033655;28;20822;-68
2022/11/19 11:21:43;;;;;;;1999.90;999.90;;;6.80;99.90;;;;;;5034351;28;20404;-68
2022/11/19 11:24:12;;;;;;;1999.90;999.90;;;6.80;99.90;;;;;;5034055;28;20513;-68
2022/11/19 11:26:39;;;;;;;1999.90;999.90;;;6.70;99.90;;;;;;5033213;28;20431;-68
2022/11/19 11:29:22;;;;;;;1999.90;999.90;;;6.70;99.90;;;;;;5033963;28;20411;-68
2022/11/19 11:31:47;;;;;;;1999.90;999.90;;;6.70;99.90;;;;;;5033963;28;20403;-68
2022/11/19 11:34:28;;;;;;;1999.90;999.90;;;6.70;99.90;;;;;;5033535;28;20532;-68
2022/11/19 11:36:55;;;;;;;1999.90;999.90;;;6.70;99.90;;;;;;5033569;28;20223;-68
2022/11/19 11:39:32;;;;;;;1999.90;999.90;;;6.60;99.90;;;;;;5033729;28;20415;-68
2022/11/19 11:41:59;;;;;;;1999.90;999.90;;;6.60;99.90;;;;;;5033520;28;20406;-68
2022/11/19 11:44:27;;;;;;;1999.90;999.90;;;6.70;99.90;;;;;;5033651;28;20450;-68
2022/11/19 11:47:00;;;;;;;1999.90;999.90;;;6.70;99.90;;;;;;5033470;28;20838;-68
2022/11/19 11:49:45;;;;;;;1999.90;999.90;;;6.70;99.90;;;;;;5033129;28;20400;-68
2022/11/19 11:52:10;;;;;;;1999.90;999.90;;;6.70;99.90;;;;;;5033673;28;20425;-68
2022/11/19 11:54:52;;;;;;;1999.90;999.90;;;6.80;99.90;;;;;;5033612;28;20411;-67
2022/11/19 11:57:20;;;;;;;1999.90;999.90;;;6.80;99.90;;;;;;5032873;28;20180;-68
2022/11/19 11:59:46;;;;;;;1999.90;999.90;;;6.90;99.90;;;;;;5033370;28;20407;-68
2022/11/19 12:02:33;;;;;;;1999.90;999.90;;;7.00;99.90;;;;;;5033643;28;20755;-68
2022/11/19 12:05:02;;;;;;;1999.90;999.90;;;7.00;99.90;;;;;;5033347;28;20445;-68
2022/11/19 12:07:39;;;;;;;1999.90;999.90;;;7.10;99.90;;;;;;5033116;28;20402;-68
2022/11/19 12:10:24;;;;;;;1999.90;999.90;;;7.10;99.90;;;;;;5032771;28;20509;-68
2022/11/19 12:12:58;;;;;;;1999.90;999.90;;;7.10;99.90;;;;;;5032083;28;20446;-68
2022/11/19 12:15:53;;;;;;;1999.90;999.90;;;7.10;99.90;;;;;;5033418;28;20890;-68
2022/11/19 12:18:38;;;;;;;1999.90;999.90;;;7.10;99.90;;;;;;5023211;28;20862;-68
2022/11/19 12:21:09;;;;;;;1999.90;999.90;;;7.10;99.90;;;;;;5033375;28;20500;-68
2022/11/19 12:23:55;;;;;;;1999.90;999.90;;;7.10;99.90;;;;;;5032960;28;20412;-68
2022/11/19 12:26:53;;;;;;;1999.90;999.90;;;7.10;99.90;;;;;;5032464;28;20430;-68
2022/11/19 12:29:40;;;;;;;1999.90;999.90;;;7.10;99.90;;;;;;5032702;28;20398;-68
2022/11/19 12:32:27;;;;;;;1999.90;999.90;;;7.10;99.90;;;;;;5032339;28;20395;-70
2022/11/19 12:34:53;;;;;;;1999.90;999.90;;;7.00;99.90;;;;;;5033042;28;20407;-68
2022/11/19 12:37:40;;;;;;;1999.90;999.90;;;7.00;99.90;;;;;;5031565;28;20476;-68
2022/11/19 12:40:36;;;;;;;1999.90;999.90;;;6.90;99.90;;;;;;5032458;28;20195;-68
2022/11/19 12:43:19;;;;;;;1999.90;999.90;;;6.90;99.90;;;;;;5033111;28;20614;-68
2022/11/19 12:46:18;;;;;;;1999.90;999.90;;;6.90;99.90;;;;;;5032551;28;20427;-68